Flugplatz Höxter-Holzminden

Für EDVI sind keine METAR/TAF Berichte vorhanden.
Es werden die Flugwettermeldungen vom Flugplatz Kassel-Calden in 44 km Entfernung angezeigt.

Bericht für EDVK

vom 01.12. um 09:20 UTC

Wind 16 kt aus 190°

Sichtweite 10 km oder mehr

gering bewölkt in 600 ft

aufgebrochene Bewölkung in 1400 ft

aufgebrochene Bewölkung in 1900 ft

Temperatur 7.0°C

Taupunkt 4.0°C

Luftfeuchtigkeit 81%

Luftdruck 992 hPa

EDVK 010920Z 19016KT 9999 FEW006 BKN014 BKN019 07/04 Q0992

Prognose für EDVK

vom 01.12. um 08:00 UTC

Zwischen 09:00 UTC und 18:00 UTC

Wind 15 kt aus 190° in Böen 25 kt

Sichtweite 10 km oder mehr

aufgebrochene Bewölkung in 1400 ft


Zwischen 09:00 und 11:00 UTC übergehend zu

Wind 20 kt aus 200° in Böen 30 kt

Sichtweite 10 km oder mehr

aufgebrochene Bewölkung in 2000 ft


Zwischen 11:00 UTC und 15:00 UTC zeitweise

Wind 25 kt aus 220° in Böen 35 kt

TAF EDVK 010800Z 0109/0118 19015G25KT 9999 BKN014 BECMG 0109/0111 20020G30KT BKN020 TEMPO 0111/0115 22025G35KT
Impressum